Time;durP1;ratioP1;P1;durP2;ratioP2;P2;SDS_P1;SDS_P2;PMS_P1;PMS_P2;Temp;Humidity;BMP_temperature;BMP_pressure;BME280_temperature;BME280_humidity;BME280_pressure;Samples;Min_cycle;Max_cycle;Signal;HPM_P1;HPM_P2
2021/10/09 00:01:33;;;;;;;34.30;18.02;;;;;;;9.71;87.13;102658.94;5012650;28;20042;-76
2021/10/09 00:03:59;;;;;;;30.48;17.77;;;;;;;9.69;87.33;102656.47;5012273;28;20033;-76
2021/10/09 00:06:24;;;;;;;32.05;19.65;;;;;;;9.76;87.06;102651.69;5015836;28;20037;-77
2021/10/09 00:08:50;;;;;;;29.42;18.23;;;;;;;9.70;87.17;102652.94;5009977;28;20045;-76
2021/10/09 00:11:33;;;;;;;32.40;18.58;;;;;;;9.67;87.26;102655.75;4992999;28;20398;-76
2021/10/09 00:13:59;;;;;;;30.35;17.73;;;;;;;9.65;87.31;102644.66;5004461;28;20117;-77
2021/10/09 00:16:24;;;;;;;28.42;17.75;;;;;;;9.63;87.10;102653.47;5014595;28;20128;-77
2021/10/09 00:18:50;;;;;;;32.55;17.80;;;;;;;9.60;87.03;102645.91;5010668;28;20060;-77
2021/10/09 00:21:15;;;;;;;27.85;16.92;;;;;;;9.55;87.01;102652.22;5010160;28;20430;-77
2021/10/09 00:23:41;;;;;;;28.00;17.15;;;;;;;9.54;86.85;102649.75;5010428;28;20041;-76
2021/10/09 00:26:06;;;;;;;28.80;18.05;;;;;;;9.52;86.75;102655.03;5012268;28;20037;-77
2021/10/09 00:28:32;;;;;;;30.40;18.27;;;;;;;9.51;86.66;102658.56;5009948;28;20044;-77
2021/10/09 00:30:57;;;;;;;31.95;16.95;;;;;;;9.48;86.55;102656.16;5006307;28;20029;-77
2021/10/09 00:33:23;;;;;;;31.38;17.98;;;;;;;9.46;86.44;102652.84;5009543;28;20034;-77
2021/10/09 00:35:48;;;;;;;32.47;15.45;;;;;;;9.42;86.28;102651.41;5011107;28;20026;-76
2021/10/09 00:38:14;;;;;;;29.27;16.73;;;;;;;9.41;86.38;102656.69;5014301;28;20026;-76
2021/10/09 00:40:40;;;;;;;36.83;18.70;;;;;;;9.38;85.97;102659.47;5017537;28;20034;-78
2021/10/09 00:43:05;;;;;;;31.10;17.73;;;;;;;9.34;86.10;102651.91;5015862;28;20131;-77
2021/10/09 00:45:31;;;;;;;27.35;17.65;;;;;;;9.29;85.99;102653.97;5014756;28;20042;-77
2021/10/09 00:47:56;;;;;;;32.10;18.60;;;;;;;9.28;85.98;102654.91;5016555;28;20566;-77
2021/10/09 00:50:22;;;;;;;31.85;17.23;;;;;;;9.27;85.82;102655.03;5014572;28;20029;-77
2021/10/09 00:52:49;;;;;;;33.63;19.52;;;;;;;9.21;85.67;102648.50;5020448;28;20430;-76
2021/10/09 00:55:15;;;;;;;30.88;16.50;;;;;;;9.19;86.04;102659.88;5016353;28;20034;-77
2021/10/09 00:57:44;;;;;;;31.55;18.17;;;;;;;9.14;85.91;102650.66;5015601;28;20052;-77
2021/10/09 01:00:10;;;;;;;27.60;16.55;;;;;;;9.14;85.96;102657.59;5013617;28;20034;-77
2021/10/09 01:02:37;;;;;;;32.55;17.15;;;;;;;9.12;85.84;102656.88;5012119;28;20036;-75
2021/10/09 01:05:08;;;;;;;31.23;17.75;;;;;;;9.09;85.52;102654.47;5011033;28;20084;-77
2021/10/09 01:07:34;;;;;;;28.65;16.48;;;;;;;9.06;85.45;102655.50;4991033;28;20084;-77
2021/10/09 01:10:03;;;;;;;31.15;17.40;;;;;;;9.03;85.16;102649.72;5014516;28;20041;-77
2021/10/09 01:12:30;;;;;;;31.65;18.25;;;;;;;9.00;85.32;102653.31;5008188;28;20029;-76
2021/10/09 01:14:55;;;;;;;27.80;16.70;;;;;;;8.96;85.48;102655.25;5017807;28;20106;-78
2021/10/09 01:17:21;;;;;;;28.85;16.25;;;;;;;8.95;85.58;102650.22;4996379;28;20033;-77
2021/10/09 01:19:47;;;;;;;32.13;17.20;;;;;;;8.92;85.45;102650.41;5012344;28;20387;-76
2021/10/09 01:22:13;;;;;;;28.40;16.83;;;;;;;8.89;85.36;102648.84;5022450;28;20042;-77
2021/10/09 01:24:40;;;;;;;32.42;18.15;;;;;;;8.88;85.23;102647.19;5011521;28;20045;-76
2021/10/09 01:27:06;;;;;;;36.10;19.25;;;;;;;8.83;85.18;102651.81;5008885;28;20030;-76
2021/10/09 01:29:32;;;;;;;28.40;17.42;;;;;;;8.81;85.04;102643.31;5006236;28;20033;-76
2021/10/09 01:32:00;;;;;;;33.63;18.63;;;;;;;8.74;85.04;102650.66;5019339;28;20443;-77
2021/10/09 01:34:28;;;;;;;30.25;18.80;;;;;;;8.71;85.12;102650.84;5010111;28;20053;-76
2021/10/09 01:37:17;;;;;;;28.08;16.63;;;;;;;8.70;84.90;102640.59;5010361;28;20041;-76
2021/10/09 01:39:44;;;;;;;33.13;17.05;;;;;;;8.63;84.84;102644.53;5009913;28;20037;-76
2021/10/09 01:42:13;;;;;;;30.05;17.60;;;;;;;8.59;84.78;102641.31;4991862;28;20038;-76
2021/10/09 01:44:42;;;;;;;35.50;18.42;;;;;;;8.56;84.79;102638.91;5010194;28;20766;-75
2021/10/09 01:47:07;;;;;;;27.75;16.50;;;;;;;8.52;84.66;102635.69;5005375;28;20030;-76
2021/10/09 01:49:36;;;;;;;31.17;17.90;;;;;;;8.48;84.72;102639.41;5012595;28;20029;-75
2021/10/09 01:52:06;;;;;;;31.38;17.65;;;;;;;8.44;84.81;102631.91;5009899;28;20038;-75
2021/10/09 01:54:32;;;;;;;31.83;18.98;;;;;;;8.43;84.99;102632.88;5014189;28;20030;-76
2021/10/09 01:56:58;;;;;;;30.83;17.88;;;;;;;8.39;84.77;102627.03;4989344;28;20399;-74
2021/10/09 01:59:42;;;;;;;31.35;17.30;;;;;;;8.38;84.94;102627.94;5006180;28;20080;-76
2021/10/09 02:02:16;;;;;;;29.92;17.33;;;;;;;8.33;84.87;102628.25;5011809;28;20071;-76
2021/10/09 02:04:41;;;;;;;31.55;17.15;;;;;;;8.32;84.93;102625.75;5006407;28;20030;-75
2021/10/09 02:07:13;;;;;;;33.40;18.73;;;;;;;8.31;84.85;102617.16;5014551;28;20033;-76
2021/10/09 02:09:39;;;;;;;31.48;17.52;;;;;;;8.28;84.76;102622.53;5005033;28;20037;-76
2021/10/09 02:12:05;;;;;;;32.70;18.17;;;;;;;8.26;84.85;102626.97;5005669;28;20025;-76
2021/10/09 02:14:48;;;;;;;29.67;16.55;;;;;;;8.23;84.65;102621.16;5006665;28;20121;-76
2021/10/09 02:17:34;;;;;;;30.00;16.67;;;;;;;8.19;84.58;102617.94;5008288;28;20083;-74
2021/10/09 02:25:44;;;;;;;29.70;17.00;;;;;;;8.04;84.30;102617.13;5003766;28;20036;-75
2021/10/09 02:28:12;;;;;;;26.85;15.48;;;;;;;7.99;84.23;102617.44;4993536;28;20067;-75
2021/10/09 02:30:38;;;;;;;28.88;16.58;;;;;;;7.98;84.30;102618.34;5004376;28;20045;-75
2021/10/09 02:33:04;;;;;;;29.50;16.60;;;;;;;7.95;84.21;102621.13;4989031;28;20471;-75
2021/10/09 02:35:30;;;;;;;26.73;15.75;;;;;;;7.93;83.95;102616.97;5003262;28;20038;-75
2021/10/09 02:37:56;;;;;;;25.65;15.57;;;;;;;7.88;84.22;102616.44;4997291;28;20087;-75
2021/10/09 02:40:22;;;;;;;22.70;14.63;;;;;;;7.85;84.40;102619.19;5012435;28;20038;-75
2021/10/09 02:42:47;;;;;;;25.73;15.70;;;;;;;7.81;84.52;102615.97;5014424;28;20068;-74
2021/10/09 02:45:13;;;;;;;29.05;15.50;;;;;;;7.75;84.41;102613.75;5010463;28;20116;-75
2021/10/09 02:47:38;;;;;;;28.95;16.88;;;;;;;7.74;84.40;102615.53;4993229;28;20681;-75
2021/10/09 02:50:07;;;;;;;37.15;18.05;;;;;;;7.72;84.38;102617.38;5007688;28;20526;-75
2021/10/09 02:52:34;;;;;;;25.90;15.25;;;;;;;7.68;84.67;102612.47;5007026;28;20040;-75
2021/10/09 02:54:59;;;;;;;29.10;15.68;;;;;;;7.64;84.28;102613.59;5017359;28;20034;-75
2021/10/09 02:57:25;;;;;;;30.88;16.33;;;;;;;7.59;84.27;102609.53;4994950;28;20044;-75
2021/10/09 02:59:51;;;;;;;27.27;15.15;;;;;;;7.59;84.35;102608.69;5009405;28;20029;-75
2021/10/09 03:02:18;;;;;;;28.52;15.60;;;;;;;7.56;84.38;102614.03;4990366;28;20399;-75
2021/10/09 03:04:43;;;;;;;32.63;17.00;;;;;;;7.48;84.64;102609.34;5007657;28;20034;-75
2021/10/09 03:07:10;;;;;;;26.55;15.73;;;;;;;7.45;84.61;102612.09;4988891;28;20034;-75
2021/10/09 03:09:35;;;;;;;27.83;15.68;;;;;;;7.42;84.69;102614.84;5010375;28;20032;-75
2021/10/09 03:12:02;;;;;;;28.80;17.27;;;;;;;7.43;84.66;102607.97;5005477;28;20662;-73
2021/10/09 03:14:30;;;;;;;30.05;17.52;;;;;;;7.45;84.78;102611.28;5008926;28;20083;-74
2021/10/09 03:16:56;;;;;;;32.38;16.85;;;;;;;7.43;84.79;102607.97;4999799;28;20038;-75
2021/10/09 03:19:21;;;;;;;33.33;18.30;;;;;;;7.40;85.19;102622.72;5017192;28;20036;-74
2021/10/09 03:21:47;;;;;;;30.13;17.80;;;;;;;7.40;85.06;102612.38;4990699;28;20034;-74
2021/10/09 03:24:13;;;;;;;30.55;16.20;;;;;;;7.37;85.30;102614.31;5010772;28;20033;-75
2021/10/09 03:26:39;;;;;;;30.25;17.67;;;;;;;7.38;85.00;102608.22;5004098;28;20048;-74
2021/10/09 03:29:05;;;;;;;29.23;16.13;;;;;;;7.37;85.16;102601.41;5013267;28;20033;-74
2021/10/09 03:31:31;;;;;;;27.65;15.60;;;;;;;7.35;85.21;102609.22;5011532;28;20076;-74
2021/10/09 03:33:57;;;;;;;30.38;17.67;;;;;;;7.33;85.08;102610.25;5012458;28;20025;-74
2021/10/09 03:36:22;;;;;;;26.38;16.48;;;;;;;7.30;85.18;102610.44;4999249;28;20061;-74
2021/10/09 03:38:49;;;;;;;26.05;15.20;;;;;;;7.29;85.17;102612.19;5004675;28;20431;-74
2021/10/09 03:41:16;;;;;;;29.67;16.33;;;;;;;7.26;85.34;102614.94;5012212;28;20038;-74
2021/10/09 03:43:43;;;;;;;34.78;17.95;;;;;;;7.22;85.43;102601.38;4990328;28;20053;-74
2021/10/09 03:46:29;;;;;;;30.90;16.98;;;;;;;7.21;85.37;102607.47;4992866;28;20490;-74
2021/10/09 03:49:05;;;;;;;31.23;16.30;;;;;;;7.18;85.41;102612.81;5024649;28;20044;-74
2021/10/09 03:54:15;;;;;;;31.67;18.15;;;;;;;7.14;85.20;102613.91;5009059;28;20040;-74
2021/10/09 03:56:41;;;;;;;30.40;15.75;;;;;;;7.11;85.07;102614.06;5008506;28;20510;-74
2021/10/09 03:59:08;;;;;;;35.13;18.35;;;;;;;7.08;85.28;102610.84;5003395;28;20045;-74
2021/10/09 04:01:35;;;;;;;34.25;17.92;;;;;;;7.06;85.18;102615.25;4996283;28;20439;-75
2021/10/09 04:04:01;;;;;;;36.88;16.90;;;;;;;7.04;85.29;102611.94;5007215;28;20045;-74
2021/10/09 04:06:26;;;;;;;27.73;16.65;;;;;;;7.01;85.30;102615.53;5003066;28;20042;-74
2021/10/09 04:08:52;;;;;;;30.60;16.35;;;;;;;6.99;85.04;102623.38;5018840;28;20076;-74
2021/10/09 04:11:19;;;;;;;28.38;16.05;;;;;;;6.97;84.93;102617.47;5009484;28;20033;-74
2021/10/09 04:13:44;;;;;;;29.95;16.35;;;;;;;6.93;85.24;102617.72;5010635;28;20119;-74
2021/10/09 04:16:10;;;;;;;30.52;15.60;;;;;;;6.91;85.24;102616.97;4991319;28;20597;-74
2021/10/09 04:18:36;;;;;;;37.38;17.25;;;;;;;6.89;85.01;102613.66;5006611;28;20062;-74
2021/10/09 04:21:02;;;;;;;29.50;17.00;;;;;;;6.81;85.45;102620.06;5012715;28;20026;-74
2021/10/09 04:23:27;;;;;;;31.67;16.08;;;;;;;6.76;85.47;102621.25;5010397;28;20453;-74
2021/10/09 04:25:54;;;;;;;30.42;15.85;;;;;;;6.72;85.80;102614.59;5008817;28;20455;-74
2021/10/09 04:28:20;;;;;;;35.28;18.38;;;;;;;6.73;85.34;102614.53;4994734;28;20030;-74
2021/10/09 04:30:46;;;;;;;39.80;19.83;;;;;;;6.75;86.01;102617.84;5012058;28;20029;-74
2021/10/09 04:33:13;;;;;;;37.17;20.02;;;;;;;6.75;86.92;102622.19;5012082;28;20088;-74
2021/10/09 04:35:39;;;;;;;40.22;18.35;;;;;;;6.74;87.18;102617.94;5012890;28;20506;-75
2021/10/09 04:38:10;;;;;;;34.60;19.65;;;;;;;6.74;87.34;102612.78;4997564;28;20033;-74
2021/10/09 04:40:38;;;;;;;36.85;19.17;;;;;;;6.76;87.57;102611.78;5015866;28;20402;-74
2021/10/09 04:43:05;;;;;;;40.00;21.98;;;;;;;6.76;87.68;102616.94;5009773;28;20032;-75
2021/10/09 04:45:32;;;;;;;37.72;19.55;;;;;;;6.78;87.65;102614.25;5008946;28;20038;-74
2021/10/09 04:48:02;;;;;;;39.97;20.58;;;;;;;6.79;87.46;102618.50;5008382;28;20092;-74
2021/10/09 04:50:28;;;;;;;39.90;21.13;;;;;;;6.78;87.67;102614.25;5008988;28;20084;-74
2021/10/09 04:52:55;;;;;;;36.08;19.23;;;;;;;6.77;87.43;102610.84;5013471;28;20183;-74
2021/10/09 04:55:21;;;;;;;40.05;20.58;;;;;;;6.76;87.85;102611.78;4996858;28;20037;-75
2021/10/09 04:57:47;;;;;;;43.97;22.27;;;;;;;6.75;87.73;102610.13;5006206;28;20037;-74
2021/10/09 05:00:13;;;;;;;37.78;21.13;;;;;;;6.74;87.60;102612.78;5012852;28;20037;-74
2021/10/09 05:02:39;;;;;;;38.45;20.00;;;;;;;6.75;87.83;102619.59;4990077;28;20378;-75
2021/10/09 05:05:05;;;;;;;38.83;21.10;;;;;;;6.73;87.45;102619.69;5013888;28;20398;-75
2021/10/09 05:07:32;;;;;;;44.40;22.40;;;;;;;6.71;87.53;102613.78;5010305;28;20057;-75
2021/10/09 05:09:59;;;;;;;42.25;22.35;;;;;;;6.67;87.40;102612.31;5011435;28;20033;-75
2021/10/09 05:12:25;;;;;;;40.30;21.90;;;;;;;6.67;87.13;102619.19;5006195;28;20100;-75
2021/10/09 05:14:51;;;;;;;37.20;20.25;;;;;;;6.62;86.83;102622.84;5008405;28;20390;-75
2021/10/09 05:17:18;;;;;;;38.95;21.13;;;;;;;6.61;87.26;102623.78;5015683;28;20091;-75
2021/10/09 05:19:43;;;;;;;40.42;21.42;;;;;;;6.59;86.81;102617.88;5011570;28;20046;-75
2021/10/09 05:22:11;;;;;;;44.75;22.48;;;;;;;6.56;87.03;102619.81;5008377;28;20123;-75
2021/10/09 05:24:37;;;;;;;40.22;20.35;;;;;;;6.54;86.90;102616.47;5031220;28;20025;-75
2021/10/09 05:27:04;;;;;;;42.17;20.92;;;;;;;6.53;87.14;102615.63;5011530;28;20438;-75
2021/10/09 05:29:31;;;;;;;39.15;20.73;;;;;;;6.55;86.91;102620.72;4994398;28;20037;-75
2021/10/09 05:32:03;;;;;;;35.85;20.67;;;;;;;6.53;86.97;102625.94;5014115;28;20030;-75
2021/10/09 05:34:30;;;;;;;38.92;20.50;;;;;;;6.52;87.21;102620.91;5005831;28;20056;-75
2021/10/09 05:36:59;;;;;;;42.88;22.23;;;;;;;6.51;86.83;102616.66;5010381;28;20469;-75
2021/10/09 05:39:25;;;;;;;43.17;23.85;;;;;;;6.50;87.05;102622.69;5001188;28;20061;-75
2021/10/09 05:41:54;;;;;;;39.90;21.08;;;;;;;6.51;87.11;102624.38;5017225;28;20041;-75
2021/10/09 05:44:19;;;;;;;39.67;20.95;;;;;;;6.49;87.10;102621.06;5010142;28;20060;-75
2021/10/09 05:46:45;;;;;;;39.10;20.92;;;;;;;6.49;87.10;102626.22;5015526;28;20045;-75
2021/10/09 05:49:14;;;;;;;36.22;20.10;;;;;;;6.49;87.12;102621.88;5019798;28;20115;-75
2021/10/09 05:51:51;;;;;;;44.33;21.65;;;;;;;6.47;87.47;102625.47;5011050;28;20048;-75
2021/10/09 05:54:44;;;;;;;49.58;23.70;;;;;;;6.46;87.09;102621.22;5003605;28;20026;-75
2021/10/09 06:32:21;;;;;;;37.15;20.30;;;;;;;6.50;87.42;102656.19;5026968;28;20072;-75
2021/10/09 06:43:28;;;;;;;38.28;19.40;;;;;;;6.56;87.41;102656.72;5003121;28;20030;-74
2021/10/09 06:59:55;;;;;;;58.95;29.20;;;;;;;7.83;84.97;102672.69;5010989;28;20035;-74
2021/10/09 07:02:21;;;;;;;52.83;24.38;;;;;;;8.24;84.14;102680.50;4991094;28;20403;-75
2021/10/09 07:04:46;;;;;;;42.63;21.45;;;;;;;8.68;82.84;102674.34;5013284;28;20490;-75
2021/10/09 07:07:18;;;;;;;44.47;20.27;;;;;;;9.16;81.55;102673.84;4996661;28;20034;-74
2021/10/09 07:10:04;;;;;;;34.90;19.23;;;;;;;9.69;79.94;102672.00;5005853;28;20042;-75
2021/10/09 07:12:31;;;;;;;35.70;18.40;;;;;;;10.07;78.18;102676.31;5006701;28;20478;-75
2021/10/09 07:14:57;;;;;;;33.67;19.38;;;;;;;10.39;76.56;102675.00;5013951;28;20042;-75
2021/10/09 07:17:24;;;;;;;34.03;18.77;;;;;;;10.69;75.48;102675.41;5014331;28;20544;-74
2021/10/09 07:19:50;;;;;;;27.63;15.98;;;;;;;11.05;74.90;102671.06;4995383;28;20026;-75
2021/10/09 07:22:16;;;;;;;28.85;17.13;;;;;;;11.34;74.50;102678.47;5009803;28;20091;-75
2021/10/09 07:24:44;;;;;;;36.38;20.58;;;;;;;11.53;73.21;102674.44;5006009;28;20056;-75
2021/10/09 07:27:11;;;;;;;36.10;20.35;;;;;;;11.70;72.16;102684.41;4992936;28;20325;-76
2021/10/09 07:29:36;;;;;;;31.60;17.95;;;;;;;11.97;72.43;102689.25;5015118;28;20029;-75
2021/10/09 07:32:02;;;;;;;34.47;19.60;;;;;;;12.18;71.88;102688.53;4995411;28;20061;-76
2021/10/09 07:34:27;;;;;;;29.77;17.45;;;;;;;12.37;71.39;102693.94;5007767;28;20513;-75
2021/10/09 07:36:53;;;;;;;33.97;19.67;;;;;;;12.57;71.24;102694.13;5011911;28;20386;-76
2021/10/09 07:39:18;;;;;;;32.67;19.17;;;;;;;12.71;70.84;102690.41;4988406;28;20068;-76
2021/10/09 07:41:44;;;;;;;33.70;18.80;;;;;;;12.91;70.42;102691.41;5030997;28;20037;-76
2021/10/09 07:44:09;;;;;;;34.53;19.77;;;;;;;13.01;69.33;102695.72;5014319;28;20033;-77
2021/10/09 07:46:35;;;;;;;39.83;20.83;;;;;;;13.09;69.07;102689.06;5008481;28;20532;-77
2021/10/09 07:49:00;;;;;;;39.55;22.73;;;;;;;13.24;69.23;102698.19;5017305;28;20029;-76
2021/10/09 07:51:26;;;;;;;42.70;22.80;;;;;;;13.46;68.82;102693.84;5016273;28;20467;-77
2021/10/09 07:53:51;;;;;;;38.08;21.80;;;;;;;13.67;67.26;102694.63;5014738;28;20056;-77
2021/10/09 07:56:16;;;;;;;40.90;22.42;;;;;;;13.73;67.63;102693.28;5012538;28;20033;-78
2021/10/09 07:58:42;;;;;;;42.47;22.80;;;;;;;14.00;66.33;102690.91;5011658;28;20076;-78
2021/10/09 08:01:08;;;;;;;34.63;19.83;;;;;;;14.27;66.39;102683.44;5009333;28;20029;-78
2021/10/09 08:03:34;;;;;;;36.67;22.10;;;;;;;14.22;65.34;102694.25;5030768;28;20269;-78
2021/10/09 08:05:59;;;;;;;32.55;19.73;;;;;;;14.54;64.23;102686.22;5008658;28;20513;-78
2021/10/09 08:08:25;;;;;;;33.70;20.45;;;;;;;14.70;64.27;102690.94;5017684;28;20057;-78
2021/10/09 08:10:53;;;;;;;41.13;22.23;;;;;;;14.58;63.25;102695.47;5009529;28;20038;-77
2021/10/09 08:13:19;;;;;;;39.83;20.67;;;;;;;15.02;62.67;102691.63;5034868;28;20034;-78
2021/10/09 08:15:45;;;;;;;35.13;19.98;;;;;;;15.16;62.68;102689.41;5012689;28;20410;-77
2021/10/09 08:18:11;;;;;;;35.00;20.65;;;;;;;15.30;61.90;102688.13;5013486;28;20069;-77
2021/10/09 08:20:38;;;;;;;33.20;20.08;;;;;;;15.23;61.42;102696.66;5017597;28;20078;-77
2021/10/09 08:23:15;;;;;;;34.45;19.23;;;;;;;15.33;61.25;102690.47;5017071;28;20510;-77
2021/10/09 08:39:41;;;;;;;34.85;18.08;;;;;;;16.33;59.21;102693.31;5019213;28;20038;-77
2021/10/09 08:42:08;;;;;;;41.85;20.42;;;;;;;16.49;57.32;102700.53;5007300;28;20030;-75
2021/10/09 08:44:33;;;;;;;35.00;18.90;;;;;;;16.41;58.90;102698.66;5010142;28;20030;-76
2021/10/09 08:46:59;;;;;;;32.28;18.75;;;;;;;16.41;58.75;102696.03;4997377;28;20040;-76
2021/10/09 08:49:25;;;;;;;39.00;18.33;;;;;;;16.34;59.31;102700.22;5016539;28;20045;-77
2021/10/09 08:51:51;;;;;;;37.85;19.98;;;;;;;16.38;59.41;102701.56;5015029;28;20422;-76
2021/10/09 08:54:17;;;;;;;39.78;19.05;;;;;;;16.44;58.52;102703.56;5010087;28;20033;-76
2021/10/09 08:56:46;;;;;;;40.97;20.25;;;;;;;16.24;59.70;102700.28;5014264;28;20035;-76
2021/10/09 08:59:24;;;;;;;41.53;20.85;;;;;;;16.04;60.20;102696.94;5011269;28;20073;-77
2021/10/09 09:02:15;;;;;;;40.00;21.00;;;;;;;16.10;58.46;102703.38;5012729;28;20040;-77
2021/10/09 09:35:15;;;;;;;41.58;19.83;;;;;;;14.95;62.84;102699.16;5005925;28;20046;-76
2021/10/09 09:40:40;;;;;;;38.80;21.77;;;;;;;14.65;62.47;102697.53;5002591;28;20041;-76
2021/10/09 09:43:07;;;;;;;34.53;19.75;;;;;;;14.69;61.97;102691.06;5009660;28;20072;-75
2021/10/09 09:45:33;;;;;;;37.83;20.85;;;;;;;14.97;60.89;102686.78;4989874;28;20403;-75
2021/10/09 09:48:04;;;;;;;45.53;19.70;;;;;;;14.72;60.88;102689.00;5004357;28;20037;-76
2021/10/09 09:50:31;;;;;;;38.78;19.88;;;;;;;14.51;64.17;102693.50;5004447;28;20125;-76
2021/10/09 09:53:01;;;;;;;42.75;22.45;;;;;;;14.69;62.36;102691.06;5012166;28;20040;-75
2021/10/09 09:55:28;;;;;;;35.75;18.80;;;;;;;14.67;62.65;102685.97;5004137;28;20072;-76
2021/10/09 09:57:54;;;;;;;42.10;21.08;;;;;;;14.58;62.16;102689.44;4997487;28;20092;-74
2021/10/09 10:00:20;;;;;;;37.28;20.42;;;;;;;14.47;64.00;102692.94;5007115;28;20038;-76
2021/10/09 10:02:54;;;;;;;35.42;18.52;;;;;;;14.60;63.32;102693.53;5003847;28;20054;-76
2021/10/09 10:05:24;;;;;;;42.53;21.65;;;;;;;14.51;62.96;102694.31;5009889;28;20029;-76
2021/10/09 10:07:51;;;;;;;35.17;19.42;;;;;;;14.57;64.44;102688.59;4986233;28;20066;-76
2021/10/09 10:10:16;;;;;;;43.25;21.02;;;;;;;14.64;62.39;102691.47;5014727;28;20092;-76
2021/10/09 10:12:44;;;;;;;39.60;21.88;;;;;;;14.63;63.89;102689.00;5007597;28;20025;-75
2021/10/09 10:15:10;;;;;;;37.47;20.70;;;;;;;14.73;63.08;102687.22;5012921;28;20367;-75
2021/10/09 10:17:40;;;;;;;39.30;20.13;;;;;;;14.89;62.36;102686.66;4990430;28;20116;-75
2021/10/09 10:20:17;;;;;;;52.10;22.10;;;;;;;15.01;61.82;102684.72;5009846;28;20446;-75
2021/10/09 10:22:42;;;;;;;33.92;19.35;;;;;;;14.83;62.48;102677.59;5012598;28;20037;-76
2021/10/09 10:25:16;;;;;;;36.80;18.33;;;;;;;14.79;62.72;102681.47;4971913;28;1084865;-76
2021/10/09 10:27:42;;;;;;;38.63;19.42;;;;;;;14.89;63.07;102677.03;5000501;28;20040;-75
2021/10/09 10:30:13;;;;;;;36.88;20.83;;;;;;;14.96;61.69;102672.91;5005635;28;20038;-75
2021/10/09 10:32:39;;;;;;;31.98;19.15;;;;;;;15.08;61.32;102683.22;5011735;28;20041;-75
2021/10/09 10:35:29;;;;;;;39.38;19.85;;;;;;;15.19;62.04;102675.22;5014550;28;20056;-76
2021/10/09 10:38:18;;;;;;;35.08;18.35;;;;;;;15.23;60.02;102680.97;5013065;28;20127;-76
2021/10/09 10:40:47;;;;;;;36.53;19.88;;;;;;;15.36;59.90;102684.94;5006934;28;20049;-75
2021/10/09 10:46:19;;;;;;;34.08;18.23;;;;;;;15.05;61.01;102676.50;5013048;28;20042;-75
2021/10/09 10:49:00;;;;;;;33.88;19.00;;;;;;;14.98;62.49;102675.38;4993467;28;20049;-75
2021/10/09 10:54:13;;;;;;;32.15;19.52;;;;;;;15.33;60.62;102666.09;5007964;28;20076;-75
2021/10/09 10:59:33;;;;;;;32.05;19.35;;;;;;;15.34;62.30;102665.94;5019671;28;20464;-76
2021/10/09 11:02:36;;;;;;;30.88;16.73;;;;;;;15.42;60.93;102664.44;5011197;28;20145;-76
2021/10/09 11:05:11;;;;;;;36.67;18.63;;;;;;;15.40;60.62;102664.56;5012538;28;20453;-76
2021/10/09 11:07:39;;;;;;;38.38;17.13;;;;;;;15.43;59.86;102656.44;5011354;28;20392;-76
2021/10/09 11:10:19;;;;;;;31.70;18.00;;;;;;;15.70;58.87;102660.88;5021721;28;20099;-75
2021/10/09 11:12:45;;;;;;;32.53;18.17;;;;;;;15.78;58.29;102657.56;5011264;28;20065;-75
2021/10/09 11:15:20;;;;;;;31.25;17.80;;;;;;;15.80;57.65;102662.66;5014405;28;20399;-75
2021/10/09 11:18:06;;;;;;;30.65;16.88;;;;;;;15.96;56.74;102662.84;5009533;28;20038;-76
2021/10/09 11:20:36;;;;;;;30.15;16.55;;;;;;;15.72;58.21;102663.34;5009685;28;20418;-75
2021/10/09 11:23:04;;;;;;;29.45;16.17;;;;;;;15.85;57.60;102666.47;5016332;28;20046;-75
2021/10/09 11:25:40;;;;;;;26.65;15.40;;;;;;;15.89;58.93;102662.59;5014013;28;20026;-75
2021/10/09 11:28:20;;;;;;;42.95;16.45;;;;;;;15.93;59.35;102658.69;5009536;28;20040;-75
2021/10/09 11:30:46;;;;;;;30.02;14.90;;;;;;;16.30;58.11;102660.41;5009910;28;20391;-77
2021/10/09 11:33:11;;;;;;;28.02;15.63;;;;;;;16.42;56.31;102650.53;5007393;28;20044;-75
2021/10/09 11:35:39;;;;;;;29.58;16.27;;;;;;;16.46;56.19;102649.28;5014473;28;20036;-75
2021/10/09 11:38:19;;;;;;;35.47;15.52;;;;;;;16.37;57.30;102649.34;5009433;28;20022;-76
2021/10/09 11:40:50;;;;;;;34.83;15.98;;;;;;;16.72;57.11;102645.88;5026563;28;20033;-76
2021/10/09 11:43:29;;;;;;;30.63;16.10;;;;;;;16.62;56.97;102648.59;5002812;28;20077;-75
2021/10/09 11:46:27;;;;;;;39.25;18.08;;;;;;;16.61;56.50;102649.56;5022868;28;20077;-75
2021/10/09 11:54:35;;;;;;;28.80;15.18;;;;;;;16.54;58.46;102638.88;5011392;28;20049;-76
2021/10/09 11:57:03;;;;;;;42.63;17.05;;;;;;;16.61;59.95;102633.03;5012761;28;20037;-75
2021/10/09 11:59:37;;;;;;;28.70;16.08;;;;;;;16.69;57.25;102636.53;4998541;28;20021;-75
2021/10/09 12:02:04;;;;;;;29.48;15.55;;;;;;;16.56;58.10;102628.25;5009173;28;20033;-76
2021/10/09 12:04:29;;;;;;;25.27;14.20;;;;;;;16.64;57.67;102622.25;5009940;28;20049;-74
2021/10/09 12:07:17;;;;;;;65.38;32.65;;;;;;;16.70;58.33;102632.13;5011562;28;20036;-75
2021/10/09 12:09:57;;;;;;;30.65;15.75;;;;;;;16.87;56.25;102627.84;5007613;28;20053;-75
2021/10/09 12:12:24;;;;;;;29.33;15.80;;;;;;;17.06;57.89;102621.59;5011520;28;20038;-74
2021/10/09 12:14:52;;;;;;;29.33;14.57;;;;;;;17.03;54.44;102617.50;5012750;28;20566;-75
2021/10/09 12:17:21;;;;;;;27.85;13.77;;;;;;;16.94;56.53;102615.78;5025191;28;20037;-74
2021/10/09 12:19:57;;;;;;;34.63;15.68;;;;;;;17.02;54.81;102623.69;5015913;28;20041;-75
2021/10/09 12:22:22;;;;;;;33.35;14.52;;;;;;;17.08;53.79;102610.00;5026423;28;20033;-75
2021/10/09 12:24:53;;;;;;;29.25;14.30;;;;;;;16.89;54.03;102610.19;5009884;28;20025;-75
2021/10/09 12:27:22;;;;;;;28.00;13.93;;;;;;;16.86;53.98;102613.94;5006681;28;20037;-75
2021/10/09 12:30:08;;;;;;;26.63;13.90;;;;;;;16.89;54.60;102611.00;4995437;28;20038;-75
2021/10/09 12:32:42;;;;;;;26.85;13.25;;;;;;;16.82;55.79;102599.50;5016176;28;20026;-75
2021/10/09 12:35:27;;;;;;;29.17;14.38;;;;;;;17.04;55.53;102599.94;5012356;28;20390;-77
2021/10/09 12:37:57;;;;;;;24.73;13.25;;;;;;;17.00;56.13;102596.81;5009197;28;20034;-75
2021/10/09 12:40:24;;;;;;;27.90;13.07;;;;;;;16.89;56.00;102597.91;5015080;28;20496;-75
2021/10/09 12:42:55;;;;;;;26.40;13.57;;;;;;;17.08;53.88;102591.66;5010520;28;20088;-75
2021/10/09 12:45:22;;;;;;;32.55;15.48;;;;;;;17.05;53.14;102591.13;5015266;28;20057;-75
2021/10/09 12:47:48;;;;;;;25.17;13.55;;;;;;;17.22;53.10;102589.41;5010528;28;20084;-77
2021/10/09 12:50:14;;;;;;;25.58;13.25;;;;;;;17.20;54.36;102583.50;5018670;28;20587;-75
2021/10/09 12:52:40;;;;;;;26.42;13.80;;;;;;;17.14;53.29;102592.81;5016451;28;20124;-75
2021/10/09 12:55:06;;;;;;;22.90;10.55;;;;;;;17.06;53.74;102583.09;5017259;28;20060;-75
2021/10/09 12:57:36;;;;;;;23.13;12.07;;;;;;;17.17;53.39;102574.13;5013769;28;20079;-75
2021/10/09 13:00:03;;;;;;;21.42;10.60;;;;;;;17.44;50.19;102581.00;5017964;28;20751;-75
2021/10/09 13:02:28;;;;;;;20.65;12.13;;;;;;;17.35;51.80;102571.44;5003670;28;20088;-75
2021/10/09 13:04:54;;;;;;;23.20;10.70;;;;;;;17.39;52.30;102577.19;5013960;28;20490;-76
2021/10/09 13:07:20;;;;;;;20.50;10.13;;;;;;;17.36;52.08;102575.69;5020515;28;20108;-75
2021/10/09 13:09:45;;;;;;;24.45;10.95;;;;;;;17.37;51.27;102579.97;5006748;28;20038;-75
2021/10/09 13:12:14;;;;;;;22.05;11.40;;;;;;;17.52;51.30;102577.56;5016341;28;20048;-75
2021/10/09 13:14:40;;;;;;;24.85;11.63;;;;;;;17.83;50.09;102569.13;5017027;28;20499;-74
2021/10/09 13:17:05;;;;;;;20.90;11.40;;;;;;;17.90;49.69;102562.28;5004547;28;20098;-75
2021/10/09 13:19:31;;;;;;;16.63;9.93;;;;;;;17.85;50.63;102575.06;5018534;28;20568;-75
2021/10/09 13:21:56;;;;;;;19.77;9.95;;;;;;;17.82;50.60;102565.69;5009390;28;20053;-75
2021/10/09 13:24:22;;;;;;;19.08;11.68;;;;;;;17.77;51.24;102560.09;5024442;28;20780;-76
2021/10/09 13:26:47;;;;;;;22.20;11.35;;;;;;;17.81;52.40;102561.41;5011671;28;20042;-75
2021/10/09 13:29:13;;;;;;;23.13;10.80;;;;;;;17.73;51.91;102561.41;5025388;28;20030;-75